AAL7510 KLAX-KSFO
Flight info
| Callsign | AAL7510 |
|---|---|
| Flight time | N/A |
| Altitude | 34000 |
| Route | SUMMR2 STOKD SERFR SERFR4 |
| Aircraft | A320/M-SDE3FGHIRWY/LB1 |
Departure
| Time | 2026-05-06 04:17 |
|---|---|
| Airport | Los Angeles International Airport (KLAX) |
Arrival
| Time | N/A |
|---|---|
| Airport | San Francisco International Airport (KSFO) |
| Time | Latitude | Longitude | Altitude | Speed | Heading |
|---|---|---|---|---|---|
| 2026-05-06 03:59 | 33.94263 | -118.41106 | 126 ft | 0 kts | 83° |
| 2026-05-06 04:04 | 33.94263 | -118.41109 | 126 ft | 2 kts | 83° |
| 2026-05-06 04:04 | 33.94261 | -118.41129 | 107 ft | 2 kts | 83° |
| 2026-05-06 04:04 | 33.94259 | -118.41150 | 122 ft | 2 kts | 83° |
| 2026-05-06 04:05 | 33.94257 | -118.41170 | 122 ft | 2 kts | 83° |
| 2026-05-06 04:05 | 33.94254 | -118.41191 | 122 ft | 2 kts | 96° |
| 2026-05-06 04:05 | 33.94255 | -118.41211 | 122 ft | 2 kts | 92° |
| 2026-05-06 04:05 | 33.94256 | -118.41231 | 122 ft | 2 kts | 63° |
| 2026-05-06 04:06 | 33.94255 | -118.41236 | 122 ft | 0 kts | 47° |
| 2026-05-06 04:07 | 33.94256 | -118.41232 | 122 ft | 0 kts | 60° |
| 2026-05-06 04:07 | 33.94284 | -118.41225 | 122 ft | 9 kts | 350° |
| 2026-05-06 04:07 | 33.94287 | -118.41225 | 123 ft | 0 kts | 353° |
| 2026-05-06 04:09 | 33.94310 | -118.41227 | 122 ft | 13 kts | 355° |
| 2026-05-06 04:10 | 33.94449 | -118.41245 | 124 ft | 19 kts | 351° |
| 2026-05-06 04:10 | 33.94571 | -118.41267 | 124 ft | 21 kts | 352° |
| 2026-05-06 04:10 | 33.94691 | -118.41284 | 124 ft | 18 kts | 353° |
| 2026-05-06 04:10 | 33.94797 | -118.41236 | 125 ft | 19 kts | 83° |
| 2026-05-06 04:11 | 33.94814 | -118.41090 | 126 ft | 12 kts | 82° |
| 2026-05-06 04:11 | 33.94817 | -118.41064 | 126 ft | 3 kts | 83° |
| 2026-05-06 04:11 | 33.94823 | -118.41009 | 126 ft | 10 kts | 83° |
| 2026-05-06 04:11 | 33.94832 | -118.40924 | 124 ft | 11 kts | 82° |
| 2026-05-06 04:12 | 33.94842 | -118.40831 | 126 ft | 12 kts | 82° |
| 2026-05-06 04:12 | 33.94853 | -118.40737 | 126 ft | 11 kts | 82° |
| 2026-05-06 04:12 | 33.94864 | -118.40650 | 123 ft | 10 kts | 82° |
| 2026-05-06 04:12 | 33.94872 | -118.40563 | 125 ft | 11 kts | 84° |
| 2026-05-06 04:13 | 33.94879 | -118.40471 | 124 ft | 11 kts | 84° |
| 2026-05-06 04:13 | 33.94887 | -118.40383 | 125 ft | 10 kts | 84° |
| 2026-05-06 04:13 | 33.94894 | -118.40305 | 125 ft | 9 kts | 83° |
| 2026-05-06 04:13 | 33.94902 | -118.40237 | 125 ft | 8 kts | 81° |
| 2026-05-06 04:14 | 33.94908 | -118.40179 | 124 ft | 6 kts | 86° |
| 2026-05-06 04:14 | 33.94913 | -118.40131 | 125 ft | 5 kts | 82° |
| 2026-05-06 04:14 | 33.94917 | -118.40089 | 125 ft | 5 kts | 83° |
| 2026-05-06 04:14 | 33.94923 | -118.40033 | 125 ft | 10 kts | 83° |
| 2026-05-06 04:15 | 33.94944 | -118.39936 | 125 ft | 14 kts | 54° |
| 2026-05-06 04:15 | 33.95027 | -118.39931 | 124 ft | 16 kts | 313° |
| 2026-05-06 04:15 | 33.95036 | -118.40012 | 124 ft | 0 kts | 263° |
| 2026-05-06 04:16 | 33.95035 | -118.40018 | 123 ft | 4 kts | 263° |
| 2026-05-06 04:16 | 33.95001 | -118.40319 | 124 ft | 75 kts | 262° |
| 2026-05-06 04:16 | 33.94909 | -118.41209 | 126 ft | 136 kts | 262° |
| 2026-05-06 04:16 | 33.94755 | -118.42512 | 333 ft | 166 kts | 260° |
| 2026-05-06 04:17 | 33.94568 | -118.43952 | 732 ft | 185 kts | 259° |
| 2026-05-06 04:17 | 33.94391 | -118.45503 | 1504 ft | 185 kts | 263° |
| 2026-05-06 04:17 | 33.94267 | -118.47053 | 2225 ft | 193 kts | 266° |
| 2026-05-06 04:17 | 33.94210 | -118.48768 | 2637 ft | 217 kts | 268° |
| 2026-05-06 04:18 | 33.94173 | -118.50695 | 3113 ft | 241 kts | 268° |
| 2026-05-06 04:18 | 33.94077 | -118.52778 | 3829 ft | 255 kts | 265° |
| 2026-05-06 04:18 | 33.93930 | -118.54928 | 4745 ft | 261 kts | 265° |
| 2026-05-06 04:18 | 33.93758 | -118.57127 | 5638 ft | 266 kts | 265° |
| 2026-05-06 04:19 | 33.93576 | -118.59360 | 6551 ft | 271 kts | 265° |
| 2026-05-06 04:19 | 33.93392 | -118.61636 | 7409 ft | 276 kts | 265° |
| 2026-05-06 04:19 | 33.93207 | -118.63961 | 8237 ft | 282 kts | 266° |
| 2026-05-06 04:19 | 33.93020 | -118.66341 | 9056 ft | 289 kts | 266° |
| 2026-05-06 04:20 | 33.92829 | -118.68795 | 9747 ft | 300 kts | 267° |
| 2026-05-06 04:20 | 33.92634 | -118.71313 | 9948 ft | 303 kts | 267° |
| 2026-05-06 04:20 | 33.92433 | -118.73936 | 10091 ft | 328 kts | 267° |
| 2026-05-06 04:20 | 33.92215 | -118.76768 | 10363 ft | 352 kts | 267° |
| 2026-05-06 04:21 | 33.91978 | -118.79807 | 10566 ft | 376 kts | 266° |
| 2026-05-06 04:21 | 33.91748 | -118.83036 | 10707 ft | 398 kts | 270° |
| 2026-05-06 04:21 | 33.91808 | -118.86410 | 11170 ft | 407 kts | 274° |
| 2026-05-06 04:21 | 33.91913 | -118.89789 | 11819 ft | 411 kts | 274° |
| 2026-05-06 04:22 | 33.92009 | -118.93243 | 12532 ft | 414 kts | 273° |
| 2026-05-06 04:22 | 33.92108 | -118.96722 | 13243 ft | 417 kts | 275° |
| 2026-05-06 04:22 | 33.92520 | -119.00190 | 13895 ft | 420 kts | 285° |